Time;durP1;ratioP1;P1;durP2;ratioP2;P2;SDS_P1;SDS_P2;PMS_P1;PMS_P2;Temp;Humidity;BMP_temperature;BMP_pressure;BME280_temperature;BME280_humidity;BME280_pressure;Samples;Min_cycle;Max_cycle;Signal;HPM_P1;HPM_P2
2024/02/02 00:01:17;;;;;;;6.65;2.78;;;;;;;;;;5099147;28;20204;-77
2024/02/02 00:03:45;;;;;;;5.97;3.10;;;;;;;;;;5098719;28;20262;-79
2024/02/02 00:06:13;;;;;;;3.47;2.70;;;;;;;;;;5099448;28;20576;-79
2024/02/02 00:08:40;;;;;;;2.60;2.40;;;;;;;;;;5098455;28;20224;-79
2024/02/02 00:11:09;;;;;;;2.95;2.40;;;;;;;;;;5098894;28;20208;-77
2024/02/02 00:13:37;;;;;;;3.53;2.20;;;;;;;;;;5099215;28;20208;-78
2024/02/02 00:16:05;;;;;;;2.47;2.28;;;;;;;;;;5098700;28;20211;-76
2024/02/02 00:18:33;;;;;;;2.47;2.17;;;;;;;;;;5098455;28;20196;-78
2024/02/02 00:21:00;;;;;;;3.58;2.97;;;;;;;;;;5099133;28;20238;-78
2024/02/02 00:23:28;;;;;;;3.40;2.65;;;;;;;;;;5098376;28;20235;-78
2024/02/02 00:25:55;;;;;;;2.78;2.25;;;;;;;;;;5098688;28;20285;-78
2024/02/02 00:28:24;;;;;;;4.72;2.75;;;;;;;;;;5097252;28;20232;-78
2024/02/02 00:30:52;;;;;;;5.10;3.88;;;;;;;;;;5099131;28;20659;-78
2024/02/02 00:33:19;;;;;;;2.35;2.15;;;;;;;;;;5097555;28;20250;-78
2024/02/02 00:35:47;;;;;;;3.38;2.30;;;;;;;;;;5098258;28;20624;-78
2024/02/02 00:38:15;;;;;;;3.70;2.88;;;;;;;;;;5097852;28;20754;-78
2024/02/02 00:40:42;;;;;;;6.00;3.13;;;;;;;;;;5098329;28;20208;-78
2024/02/02 00:43:10;;;;;;;3.38;3.08;;;;;;;;;;5098389;28;20650;-79
2024/02/02 00:45:38;;;;;;;6.10;2.72;;;;;;;;;;5097730;28;20200;-79
2024/02/02 00:48:07;;;;;;;2.47;1.95;;;;;;;;;;5097943;28;20243;-77
2024/02/02 00:50:35;;;;;;;3.95;2.83;;;;;;;;;;5097396;28;20565;-79
2024/02/02 00:53:02;;;;;;;8.38;3.53;;;;;;;;;;5097608;28;20257;-78
2024/02/02 00:55:30;;;;;;;3.58;2.92;;;;;;;;;;5097760;28;20246;-79
2024/02/02 00:57:57;;;;;;;3.85;3.45;;;;;;;;;;5098162;28;20256;-78
2024/02/02 01:00:25;;;;;;;4.20;2.40;;;;;;;;;;5097899;28;20232;-78
2024/02/02 01:02:54;;;;;;;3.40;2.47;;;;;;;;;;5097185;28;20229;-78
2024/02/02 01:05:22;;;;;;;3.45;3.15;;;;;;;;;;5097966;28;20204;-79
2024/02/02 01:07:50;;;;;;;4.95;3.00;;;;;;;;;;5098066;28;20224;-79
2024/02/02 01:10:17;;;;;;;6.22;3.63;;;;;;;;;;5097172;28;20247;-78
2024/02/02 01:12:46;;;;;;;2.85;2.30;;;;;;;;;;5097326;28;20671;-78
2024/02/02 01:15:14;;;;;;;4.28;2.60;;;;;;;;;;5097967;28;20278;-79
2024/02/02 01:17:45;;;;;;;3.15;2.47;;;;;;;;;;5097906;28;20250;-78
2024/02/02 01:20:14;;;;;;;6.15;3.83;;;;;;;;;;5097482;28;20264;-78
2024/02/02 01:22:42;;;;;;;5.10;4.13;;;;;;;;;;5097946;28;20299;-78
2024/02/02 01:25:11;;;;;;;3.50;2.90;;;;;;;;;;5097620;28;20591;-79
2024/02/02 01:27:39;;;;;;;5.25;4.05;;;;;;;;;;5097853;28;20675;-78
2024/02/02 01:30:09;;;;;;;4.95;3.63;;;;;;;;;;5097693;28;20234;-78
2024/02/02 01:32:39;;;;;;;4.72;4.20;;;;;;;;;;5096647;28;20204;-75
2024/02/02 01:35:07;;;;;;;7.63;3.20;;;;;;;;;;5097516;28;20211;-79
2024/02/02 01:37:36;;;;;;;6.65;4.72;;;;;;;;;;5097740;28;20273;-78
2024/02/02 01:40:04;;;;;;;9.75;5.50;;;;;;;;;;5096515;28;20214;-78
2024/02/02 01:42:32;;;;;;;6.82;4.70;;;;;;;;;;5097250;28;20291;-79
2024/02/02 01:44:59;;;;;;;3.40;3.10;;;;;;;;;;5096903;28;20265;-78
2024/02/02 01:47:27;;;;;;;6.38;4.80;;;;;;;;;;5096807;28;20228;-78
2024/02/02 01:49:54;;;;;;;8.13;4.30;;;;;;;;;;5097183;28;20277;-78
2024/02/02 01:52:22;;;;;;;4.75;3.83;;;;;;;;;;5079512;28;20197;-78
2024/02/02 01:54:51;;;;;;;4.10;3.70;;;;;;;;;;5081542;28;20258;-79
2024/02/02 01:57:19;;;;;;;4.80;3.40;;;;;;;;;;5097696;28;20216;-79
2024/02/02 01:59:47;;;;;;;4.90;3.65;;;;;;;;;;5097351;28;20196;-78
2024/02/02 02:02:15;;;;;;;4.47;3.65;;;;;;;;;;5096989;28;20646;-79
2024/02/02 02:04:42;;;;;;;6.82;4.15;;;;;;;;;;5088974;28;20201;-78
2024/02/02 02:07:10;;;;;;;5.25;3.88;;;;;;;;;;5097753;28;20220;-78
2024/02/02 02:09:38;;;;;;;6.55;3.17;;;;;;;;;;5097363;28;20219;-78
2024/02/02 02:12:08;;;;;;;4.18;3.72;;;;;;;;;;5097675;28;20195;-78
2024/02/02 02:14:35;;;;;;;5.95;4.57;;;;;;;;;;5097083;28;20257;-78
2024/02/02 02:17:03;;;;;;;3.90;3.28;;;;;;;;;;5090432;28;20221;-79
2024/02/02 02:19:32;;;;;;;7.97;5.03;;;;;;;;;;5095579;28;20208;-79
2024/02/02 02:22:01;;;;;;;4.40;3.83;;;;;;;;;;5096199;28;20657;-78
2024/02/02 02:24:28;;;;;;;4.95;4.18;;;;;;;;;;5096394;28;20527;-78
2024/02/02 02:26:56;;;;;;;5.15;3.75;;;;;;;;;;5096873;28;20224;-78
2024/02/02 02:29:24;;;;;;;6.68;4.07;;;;;;;;;;5096858;28;20689;-78
2024/02/02 02:31:54;;;;;;;4.05;3.42;;;;;;;;;;5096476;28;20244;-79
2024/02/02 02:34:24;;;;;;;4.00;3.35;;;;;;;;;;5098454;28;20200;-78
2024/02/02 02:36:51;;;;;;;4.88;3.33;;;;;;;;;;5097711;28;20232;-79
2024/02/02 02:39:20;;;;;;;5.22;3.97;;;;;;;;;;5098553;28;20204;-78
2024/02/02 02:41:48;;;;;;;3.92;3.47;;;;;;;;;;5097806;28;20257;-78
2024/02/02 02:44:16;;;;;;;6.82;4.20;;;;;;;;;;5097686;28;20208;-78
2024/02/02 02:46:43;;;;;;;9.35;5.22;;;;;;;;;;5077917;28;20230;-78
2024/02/02 02:49:11;;;;;;;4.55;3.35;;;;;;;;;;5077770;28;20213;-78
2024/02/02 02:51:38;;;;;;;3.25;2.95;;;;;;;;;;5088817;28;20220;-78
2024/02/02 02:54:06;;;;;;;6.78;3.88;;;;;;;;;;5096784;28;20253;-78
2024/02/02 02:56:35;;;;;;;4.57;3.00;;;;;;;;;;5102154;28;20224;-78
2024/02/02 02:59:03;;;;;;;2.92;2.72;;;;;;;;;;5102869;28;20200;-78
2024/02/02 03:01:30;;;;;;;7.30;3.60;;;;;;;;;;5102157;28;20247;-78
2024/02/02 03:03:58;;;;;;;6.57;3.40;;;;;;;;;;5101869;28;20200;-78
2024/02/02 03:06:26;;;;;;;3.97;2.97;;;;;;;;;;5101881;28;20795;-79
2024/02/02 03:08:53;;;;;;;3.22;2.78;;;;;;;;;;5101803;28;20212;-78
2024/02/02 03:11:21;;;;;;;5.82;4.55;;;;;;;;;;5102715;28;20232;-78
2024/02/02 03:13:50;;;;;;;3.35;3.05;;;;;;;;;;5102293;28;20253;-78
2024/02/02 03:16:18;;;;;;;5.65;3.63;;;;;;;;;;5101919;28;20204;-78
2024/02/02 03:18:45;;;;;;;4.05;3.25;;;;;;;;;;5102414;28;20658;-78
2024/02/02 03:21:13;;;;;;;4.15;3.28;;;;;;;;;;5101570;28;20245;-78
2024/02/02 03:23:41;;;;;;;4.63;3.08;;;;;;;;;;5101445;28;20200;-78
2024/02/02 03:26:09;;;;;;;5.72;3.05;;;;;;;;;;5101883;28;20253;-78
2024/02/02 03:28:37;;;;;;;4.15;2.95;;;;;;;;;;5091418;28;20734;-78
2024/02/02 03:31:06;;;;;;;2.85;2.63;;;;;;;;;;5096732;28;20220;-78
2024/02/02 03:33:34;;;;;;;4.07;2.78;;;;;;;;;;5101911;28;20205;-78
2024/02/02 03:36:02;;;;;;;2.95;2.35;;;;;;;;;;5087796;28;20235;-78
2024/02/02 03:38:29;;;;;;;3.50;2.65;;;;;;;;;;5089613;28;20204;-77
2024/02/02 03:40:57;;;;;;;3.63;3.10;;;;;;;;;;5081404;28;20197;-78
2024/02/02 03:43:24;;;;;;;3.00;2.50;;;;;;;;;;5090396;28;20269;-78
2024/02/02 03:45:52;;;;;;;6.05;4.00;;;;;;;;;;5101024;28;20199;-78
2024/02/02 03:48:21;;;;;;;10.77;3.38;;;;;;;;;;5099760;28;20216;-78
2024/02/02 03:50:48;;;;;;;6.43;4.05;;;;;;;;;;5101081;28;20259;-78
2024/02/02 03:53:16;;;;;;;5.45;3.55;;;;;;;;;;5100268;28;20200;-78
2024/02/02 03:55:43;;;;;;;11.85;5.30;;;;;;;;;;5090550;28;20200;-78
2024/02/02 03:58:11;;;;;;;6.95;4.70;;;;;;;;;;5100308;28;20257;-78
2024/02/02 04:00:39;;;;;;;6.72;6.00;;;;;;;;;;5100826;28;20257;-78
2024/02/02 04:03:07;;;;;;;5.43;3.95;;;;;;;;;;5100350;28;20232;-78
2024/02/02 04:05:39;;;;;;;5.25;3.88;;;;;;;;;;5100214;28;20243;-78
2024/02/02 04:08:07;;;;;;;3.53;3.08;;;;;;;;;;5100504;28;20224;-78
2024/02/02 04:10:35;;;;;;;6.05;3.53;;;;;;;;;;5100293;28;20259;-78
2024/02/02 04:13:03;;;;;;;6.40;3.75;;;;;;;;;;5091334;28;20850;-78
2024/02/02 04:15:30;;;;;;;4.93;3.80;;;;;;;;;;5091878;28;20209;-78
2024/02/02 04:17:58;;;;;;;7.00;4.00;;;;;;;;;;5091397;28;20360;-78
2024/02/02 04:20:25;;;;;;;5.30;3.83;;;;;;;;;;5099945;28;20197;-78
2024/02/02 04:22:54;;;;;;;4.28;3.33;;;;;;;;;;5095223;28;20654;-78
2024/02/02 04:25:22;;;;;;;3.15;2.95;;;;;;;;;;5079553;28;20663;-78
2024/02/02 04:27:49;;;;;;;9.82;5.07;;;;;;;;;;5079046;28;20217;-78
2024/02/02 04:30:18;;;;;;;5.75;4.03;;;;;;;;;;5095718;28;20228;-78
2024/02/02 04:32:45;;;;;;;13.98;5.90;;;;;;;;;;5099734;28;20203;-78
2024/02/02 04:35:13;;;;;;;11.20;5.57;;;;;;;;;;5099472;28;20244;-78
2024/02/02 04:37:42;;;;;;;14.77;5.63;;;;;;;;;;5099236;28;20277;-78
2024/02/02 04:40:12;;;;;;;9.50;6.00;;;;;;;;;;5098433;28;20538;-79
2024/02/02 04:42:40;;;;;;;9.88;5.03;;;;;;;;;;5094782;28;20682;-77
2024/02/02 04:45:08;;;;;;;8.90;5.50;;;;;;;;;;5094447;28;20236;-77
2024/02/02 04:47:36;;;;;;;7.75;4.40;;;;;;;;;;5093939;28;20277;-77
2024/02/02 04:50:04;;;;;;;6.53;4.03;;;;;;;;;;5093714;28;20257;-77
2024/02/02 04:52:32;;;;;;;7.65;4.85;;;;;;;;;;5094540;28;20634;-78
2024/02/02 04:54:59;;;;;;;7.50;4.15;;;;;;;;;;5087952;28;20572;-78
2024/02/02 04:57:28;;;;;;;6.07;4.00;;;;;;;;;;5083184;28;20698;-78
2024/02/02 04:59:56;;;;;;;7.65;3.65;;;;;;;;;;5093810;28;20200;-77
2024/02/02 05:02:23;;;;;;;7.35;5.10;;;;;;;;;;5093719;28;20243;-77
2024/02/02 05:04:50;;;;;;;6.53;3.83;;;;;;;;;;5095273;28;20251;-79
2024/02/02 05:07:18;;;;;;;5.72;3.47;;;;;;;;;;5099179;28;20301;-79
2024/02/02 05:09:46;;;;;;;3.45;3.05;;;;;;;;;;5101137;28;20204;-79
2024/02/02 05:12:15;;;;;;;3.33;2.97;;;;;;;;;;5100457;28;20227;-79
2024/02/02 05:14:44;;;;;;;4.97;4.00;;;;;;;;;;5100124;28;20204;-79
2024/02/02 05:17:12;;;;;;;5.60;3.33;;;;;;;;;;5103275;28;20289;-79
2024/02/02 05:19:39;;;;;;;3.97;3.60;;;;;;;;;;5102560;28;20208;-79
2024/02/02 05:22:07;;;;;;;5.30;3.13;;;;;;;;;;5103284;28;20196;-79
2024/02/02 05:24:35;;;;;;;3.50;3.20;;;;;;;;;;5102178;28;20662;-79
2024/02/02 05:27:03;;;;;;;4.97;3.03;;;;;;;;;;5100843;28;20273;-78
2024/02/02 05:29:30;;;;;;;5.85;3.97;;;;;;;;;;5103709;28;20572;-78
2024/02/02 05:31:59;;;;;;;5.30;3.33;;;;;;;;;;5097205;28;20243;-79
2024/02/02 05:34:27;;;;;;;7.20;3.67;;;;;;;;;;5082317;28;20231;-79
2024/02/02 05:36:54;;;;;;;4.18;3.20;;;;;;;;;;5087286;28;20224;-78
2024/02/02 05:39:22;;;;;;;5.47;3.53;;;;;;;;;;5102832;28;20234;-79
2024/02/02 05:41:50;;;;;;;5.45;3.58;;;;;;;;;;5102314;28;20249;-79
2024/02/02 05:44:18;;;;;;;4.70;3.28;;;;;;;;;;5102733;28;20234;-79
2024/02/02 05:46:47;;;;;;;5.90;3.85;;;;;;;;;;5092926;28;20235;-79
2024/02/02 05:49:16;;;;;;;3.65;3.35;;;;;;;;;;5102132;28;20619;-79
2024/02/02 05:51:43;;;;;;;5.22;3.55;;;;;;;;;;5103016;28;20230;-79
2024/02/02 05:54:11;;;;;;;7.32;3.97;;;;;;;;;;5095194;28;20558;-79
2024/02/02 05:56:39;;;;;;;6.03;3.25;;;;;;;;;;5093957;28;20223;-79
2024/02/02 05:59:06;;;;;;;6.18;3.97;;;;;;;;;;5102250;28;20204;-79
2024/02/02 06:01:34;;;;;;;4.97;3.22;;;;;;;;;;5101984;28;20196;-78
2024/02/02 06:04:01;;;;;;;6.93;4.63;;;;;;;;;;5102246;28;20265;-79
2024/02/02 06:06:30;;;;;;;8.55;3.97;;;;;;;;;;5101481;28;20228;-78
2024/02/02 06:08:58;;;;;;;6.40;4.47;;;;;;;;;;5100667;28;20320;-79
2024/02/02 06:11:25;;;;;;;6.07;3.95;;;;;;;;;;5083160;28;20231;-79
2024/02/02 06:13:55;;;;;;;7.43;4.85;;;;;;;;;;5080926;28;20201;-79
2024/02/02 06:16:24;;;;;;;6.70;4.70;;;;;;;;;;5081937;28;20200;-79
2024/02/02 06:18:52;;;;;;;9.60;5.22;;;;;;;;;;5101277;28;20204;-79
2024/02/02 06:21:19;;;;;;;9.63;4.70;;;;;;;;;;5092780;28;20198;-79
2024/02/02 06:23:48;;;;;;;8.02;5.05;;;;;;;;;;5084833;28;20204;-79
2024/02/02 06:26:16;;;;;;;8.15;5.15;;;;;;;;;;5093131;28;20208;-79
2024/02/02 06:28:45;;;;;;;9.20;5.63;;;;;;;;;;5081895;28;20201;-79
2024/02/02 06:31:13;;;;;;;5.53;4.32;;;;;;;;;;5081177;28;20295;-79
2024/02/02 06:33:41;;;;;;;5.63;4.50;;;;;;;;;;5081227;28;20208;-80
2024/02/02 06:36:09;;;;;;;8.02;4.93;;;;;;;;;;5081583;28;20201;-78
2024/02/02 06:38:36;;;;;;;7.90;4.30;;;;;;;;;;5081643;28;20201;-79
2024/02/02 06:41:10;;;;;;;8.27;4.53;;;;;;;;;;5081676;28;20683;-79
2024/02/02 06:43:38;;;;;;;6.07;4.55;;;;;;;;;;5081264;28;20598;-79
2024/02/02 06:46:06;;;;;;;11.23;6.25;;;;;;;;;;5081635;28;20196;-79
2024/02/02 06:48:33;;;;;;;5.03;4.03;;;;;;;;;;5099637;28;20212;-79
2024/02/02 06:51:01;;;;;;;4.55;3.92;;;;;;;;;;5095410;28;20201;-79
2024/02/02 06:53:32;;;;;;;9.82;4.72;;;;;;;;;;5088695;28;20273;-79
2024/02/02 06:56:00;;;;;;;7.72;4.32;;;;;;;;;;5096265;28;20251;-79
2024/02/02 06:58:41;;;;;;;5.65;4.15;;;;;;;;;;5100352;28;20224;-79
2024/02/02 07:01:10;;;;;;;5.72;3.75;;;;;;;;;;5101268;28;20243;-78
2024/02/02 07:03:37;;;;;;;8.43;4.28;;;;;;;;;;5097942;28;20272;-78
2024/02/02 07:06:06;;;;;;;6.68;4.63;;;;;;;;;;5098307;28;20781;-78
2024/02/02 07:08:34;;;;;;;5.10;3.25;;;;;;;;;;5081294;28;20247;-78
2024/02/02 07:11:08;;;;;;;6.85;4.85;;;;;;;;;;5098507;28;20208;-78
2024/02/02 07:13:47;;;;;;;10.43;5.32;;;;;;;;;;5098244;28;20242;-78
2024/02/02 07:16:18;;;;;;;5.90;4.65;;;;;;;;;;5097939;28;20202;-78
2024/02/02 07:18:46;;;;;;;8.77;4.60;;;;;;;;;;5098093;28;20181;-78
2024/02/02 07:21:15;;;;;;;11.65;4.55;;;;;;;;;;5097478;28;20200;-78
2024/02/02 07:23:45;;;;;;;5.25;3.65;;;;;;;;;;5097224;28;20201;-79
2024/02/02 07:26:23;;;;;;;5.65;4.22;;;;;;;;;;5097637;28;20708;-78
2024/02/02 07:28:52;;;;;;;8.43;4.55;;;;;;;;;;5097192;28;20184;-78
2024/02/02 07:31:37;;;;;;;7.15;4.00;;;;;;;;;;5097353;28;20200;-78
2024/02/02 07:34:25;;;;;;;9.70;4.80;;;;;;;;;;5096193;28;20695;-78
2024/02/02 07:36:52;;;;;;;7.65;4.00;;;;;;;;;;5095831;28;20224;-78
2024/02/02 07:39:28;;;;;;;5.22;3.90;;;;;;;;;;5099146;28;20200;-78
2024/02/02 07:41:57;;;;;;;5.72;3.80;;;;;;;;;;5099082;28;20247;-78
2024/02/02 07:44:27;;;;;;;7.50;4.35;;;;;;;;;;5099626;28;20205;-78
2024/02/02 07:46:54;;;;;;;5.78;4.57;;;;;;;;;;5099157;28;20260;-78
2024/02/02 07:49:22;;;;;;;8.45;4.18;;;;;;;;;;5098469;28;20265;-77
2024/02/02 07:51:49;;;;;;;5.15;4.40;;;;;;;;;;5099643;28;20791;-78
2024/02/02 07:54:17;;;;;;;5.80;3.33;;;;;;;;;;5098965;28;20224;-78
2024/02/02 07:56:45;;;;;;;4.47;2.90;;;;;;;;;;5099917;28;20232;-78
2024/02/02 07:59:12;;;;;;;7.05;4.18;;;;;;;;;;5099856;28;20205;-78
2024/02/02 08:01:41;;;;;;;4.95;3.30;;;;;;;;;;5100192;28;20216;-79
2024/02/02 08:04:09;;;;;;;8.43;3.92;;;;;;;;;;5100224;28;20240;-78
2024/02/02 08:06:36;;;;;;;6.20;3.95;;;;;;;;;;5099930;28;20220;-77
2024/02/02 08:09:04;;;;;;;10.73;4.50;;;;;;;;;;5099204;28;20249;-79
2024/02/02 08:11:35;;;;;;;6.93;3.70;;;;;;;;;;5099043;28;20264;-76
2024/02/02 08:14:02;;;;;;;7.43;4.60;;;;;;;;;;5099456;28;20212;-75
2024/02/02 08:16:30;;;;;;;8.80;4.47;;;;;;;;;;5098486;28;20259;-78
2024/02/02 08:18:59;;;;;;;9.13;3.95;;;;;;;;;;5099193;28;20235;-78
2024/02/02 08:21:26;;;;;;;5.63;3.97;;;;;;;;;;5099266;28;20212;-77
2024/02/02 08:23:54;;;;;;;7.82;4.72;;;;;;;;;;5099087;28;20196;-77
2024/02/02 08:26:22;;;;;;;10.07;4.68;;;;;;;;;;5097880;28;20204;-78
2024/02/02 08:28:49;;;;;;;11.23;5.30;;;;;;;;;;5098767;28;20208;-78
2024/02/02 08:31:17;;;;;;;8.65;4.15;;;;;;;;;;5098669;28;20205;-77
2024/02/02 08:33:44;;;;;;;8.25;4.47;;;;;;;;;;5097100;28;20223;-78
2024/02/02 08:36:13;;;;;;;9.52;4.63;;;;;;;;;;5096988;28;20239;-78
2024/02/02 08:38:41;;;;;;;6.93;3.47;;;;;;;;;;5098126;28;20330;-77
2024/02/02 08:41:09;;;;;;;8.43;3.55;;;;;;;;;;5097118;28;20204;-77
2024/02/02 08:43:36;;;;;;;6.00;3.60;;;;;;;;;;5095960;28;20200;-78
2024/02/02 08:46:10;;;;;;;6.10;3.83;;;;;;;;;;5097162;28;20265;-78
2024/02/02 08:48:44;;;;;;;11.00;4.10;;;;;;;;;;5097575;28;20196;-79
2024/02/02 08:51:54;;;;;;;10.10;4.43;;;;;;;;;;5097976;28;20201;-78
2024/02/02 08:54:46;;;;;;;10.55;5.15;;;;;;;;;;5094569;28;20262;-79
2024/02/02 08:57:36;;;;;;;8.25;4.57;;;;;;;;;;5097641;28;20220;-78
2024/02/02 09:00:15;;;;;;;9.85;3.75;;;;;;;;;;5092426;28;20204;-79
2024/02/02 09:02:56;;;;;;;8.90;4.47;;;;;;;;;;5098387;28;20226;-79
2024/02/02 09:05:25;;;;;;;8.73;4.68;;;;;;;;;;5089459;28;20208;-79
2024/02/02 09:08:07;;;;;;;8.32;3.42;;;;;;;;;;5097828;28;20278;-78
2024/02/02 09:11:23;;;;;;;8.82;4.75;;;;;;;;;;5098603;28;20227;-79
2024/02/02 09:14:04;;;;;;;6.93;3.60;;;;;;;;;;5051529;28;20228;-78
2024/02/02 09:16:43;;;;;;;6.78;3.13;;;;;;;;;;5097976;28;20235;-76
2024/02/02 09:19:40;;;;;;;4.82;2.95;;;;;;;;;;5097003;28;20235;-78
2024/02/02 09:22:12;;;;;;;3.80;3.08;;;;;;;;;;5080018;28;20222;-79
2024/02/02 09:24:43;;;;;;;12.23;4.22;;;;;;;;;;5096054;28;20236;-77
2024/02/02 09:27:16;;;;;;;10.27;3.72;;;;;;;;;;5096088;28;20224;-77
2024/02/02 09:29:47;;;;;;;4.70;3.22;;;;;;;;;;5095372;28;20254;-77
2024/02/02 09:32:16;;;;;;;11.20;6.00;;;;;;;;;;5096023;28;20238;-78
2024/02/02 09:34:44;;;;;;;10.10;3.95;;;;;;;;;;5095086;28;20231;-78
2024/02/02 09:37:20;;;;;;;7.70;3.67;;;;;;;;;;5095812;28;20228;-77
2024/02/02 09:39:55;;;;;;;5.53;3.30;;;;;;;;;;5088545;28;20625;-77
2024/02/02 09:43:06;;;;;;;5.80;3.45;;;;;;;;;;5096466;28;20269;-78
2024/02/02 09:45:55;;;;;;;5.78;3.10;;;;;;;;;;5097347;28;20196;-77
2024/02/02 09:48:41;;;;;;;4.40;2.60;;;;;;;;;;5096849;28;20232;-78
2024/02/02 09:51:17;;;;;;;13.52;4.47;;;;;;;;;;5097145;28;20200;-78
2024/02/02 09:54:07;;;;;;;5.38;3.53;;;;;;;;;;5096322;28;20212;-77
2024/02/02 09:56:47;;;;;;;6.20;2.80;;;;;;;;;;5095490;28;20725;-78
2024/02/02 09:59:22;;;;;;;5.22;3.15;;;;;;;;;;5095764;28;20200;-78
2024/02/02 10:02:03;;;;;;;7.18;3.08;;;;;;;;;;5075171;28;20204;-78
2024/02/02 10:04:42;;;;;;;4.78;2.40;;;;;;;;;;5093299;28;20715;-77
2024/02/02 10:07:20;;;;;;;4.40;2.70;;;;;;;;;;5095576;28;20226;-77
2024/02/02 10:10:14;;;;;;;12.43;3.17;;;;;;;;;;5087103;28;20204;-78
2024/02/02 10:12:54;;;;;;;5.82;2.42;;;;;;;;;;5094449;28;20240;-77
2024/02/02 10:15:55;;;;;;;7.43;3.47;;;;;;;;;;5095114;28;20262;-77
2024/02/02 10:19:00;;;;;;;11.18;3.65;;;;;;;;;;5088099;28;20242;-78
2024/02/02 10:21:36;;;;;;;7.43;2.90;;;;;;;;;;5080153;28;20200;-78
2024/02/02 10:24:33;;;;;;;5.05;2.63;;;;;;;;;;5095948;28;20192;-78
2024/02/02 10:27:20;;;;;;;3.92;2.63;;;;;;;;;;5083992;28;20278;-78
2024/02/02 10:30:01;;;;;;;4.97;2.50;;;;;;;;;;5088470;28;20201;-78
2024/02/02 10:32:53;;;;;;;6.43;2.90;;;;;;;;;;5095944;28;20216;-78
2024/02/02 10:35:28;;;;;;;9.73;3.65;;;;;;;;;;5096185;28;20262;-78
2024/02/02 10:37:59;;;;;;;8.38;3.90;;;;;;;;;;5096472;28;20677;-78
2024/02/02 10:40:37;;;;;;;7.75;3.33;;;;;;;;;;5096217;28;20655;-78
2024/02/02 10:43:29;;;;;;;7.57;2.72;;;;;;;;;;5096551;28;20234;-78
2024/02/02 10:46:10;;;;;;;4.57;2.70;;;;;;;;;;5088833;28;20200;-78
2024/02/02 10:48:57;;;;;;;4.55;2.80;;;;;;;;;;5096394;28;20236;-79
2024/02/02 10:51:33;;;;;;;5.63;3.30;;;;;;;;;;5096445;28;20197;-77
2024/02/02 10:54:16;;;;;;;5.15;2.78;;;;;;;;;;5095616;28;20199;-78
2024/02/02 10:57:02;;;;;;;6.30;2.78;;;;;;;;;;5095895;28;20258;-78
2024/02/02 10:59:39;;;;;;;4.82;2.60;;;;;;;;;;5096008;28;20250;-78
2024/02/02 11:02:19;;;;;;;5.10;1.70;;;;;;;;;;5096388;28;20202;-79
2024/02/02 11:04:54;;;;;;;5.57;2.85;;;;;;;;;;5096489;28;20196;-79
2024/02/02 11:07:28;;;;;;;3.10;2.55;;;;;;;;;;5087693;28;20216;-79
2024/02/02 11:09:58;;;;;;;2.85;1.65;;;;;;;;;;5088190;28;20291;-79
2024/02/02 11:12:48;;;;;;;4.63;2.55;;;;;;;;;;5088939;28;20234;-79
2024/02/02 11:15:30;;;;;;;3.55;2.35;;;;;;;;;;5099804;28;20251;-78
2024/02/02 11:18:07;;;;;;;7.80;2.92;;;;;;;;;;5093310;28;20258;-79
2024/02/02 11:20:46;;;;;;;4.80;2.30;;;;;;;;;;5099448;28;20319;-78
2024/02/02 11:23:20;;;;;;;8.07;3.08;;;;;;;;;;5099784;28;20200;-79
2024/02/02 11:25:57;;;;;;;6.20;2.72;;;;;;;;;;5099972;28;20207;-79
2024/02/02 11:28:29;;;;;;;4.15;2.40;;;;;;;;;;5099619;28;20223;-79
2024/02/02 11:31:06;;;;;;;2.45;2.03;;;;;;;;;;5099551;28;20667;-79
2024/02/02 11:33:59;;;;;;;6.13;3.75;;;;;;;;;;5097333;28;20241;-78
2024/02/02 11:36:37;;;;;;;8.27;2.60;;;;;;;;;;5086372;28;20243;-77
2024/02/02 11:39:21;;;;;;;5.13;2.60;;;;;;;;;;5097498;28;20299;-76
2024/02/02 11:41:49;;;;;;;4.97;3.00;;;;;;;;;;5088592;28;20201;-77
2024/02/02 11:44:17;;;;;;;6.13;2.63;;;;;;;;;;5097246;28;20204;-77
2024/02/02 11:46:47;;;;;;;5.03;2.30;;;;;;;;;;5096664;28;20260;-77
2024/02/02 11:49:23;;;;;;;5.65;2.05;;;;;;;;;;5097213;28;20230;-77
2024/02/02 11:51:55;;;;;;;6.68;2.50;;;;;;;;;;5089534;28;20722;-76
2024/02/02 11:54:29;;;;;;;6.20;2.63;;;;;;;;;;5096426;28;20203;-77
2024/02/02 11:56:57;;;;;;;7.63;3.38;;;;;;;;;;5096945;28;20224;-77
2024/02/02 11:59:28;;;;;;;4.90;2.47;;;;;;;;;;5097295;28;20716;-78
2024/02/02 12:02:15;;;;;;;6.53;2.72;;;;;;;;;;5097142;28;20291;-76
2024/02/02 12:04:53;;;;;;;4.38;2.13;;;;;;;;;;5097137;28;20204;-77
2024/02/02 12:07:33;;;;;;;3.42;1.80;;;;;;;;;;5096538;28;20288;-77
2024/02/02 12:10:04;;;;;;;3.97;2.13;;;;;;;;;;5097181;28;20203;-78
2024/02/02 12:12:37;;;;;;;5.43;2.45;;;;;;;;;;5096203;28;20663;-75
2024/02/02 12:15:09;;;;;;;8.48;2.85;;;;;;;;;;5096542;28;20223;-76
2024/02/02 12:17:37;;;;;;;5.85;2.78;;;;;;;;;;5096345;28;20220;-77
2024/02/02 12:20:08;;;;;;;7.47;2.67;;;;;;;;;;5095865;28;20200;-77
2024/02/02 12:22:36;;;;;;;3.40;2.75;;;;;;;;;;5095744;28;20212;-76
2024/02/02 12:25:04;;;;;;;3.97;2.30;;;;;;;;;;5095596;28;20687;-77
2024/02/02 12:27:32;;;;;;;5.40;2.85;;;;;;;;;;5096682;28;20228;-77
2024/02/02 12:29:59;;;;;;;10.32;4.22;;;;;;;;;;5096389;28;20232;-77
2024/02/02 12:32:27;;;;;;;5.88;2.42;;;;;;;;;;5096041;28;20631;-77
2024/02/02 12:34:55;;;;;;;4.03;2.20;;;;;;;;;;5095641;28;20291;-77
2024/02/02 12:37:24;;;;;;;5.20;2.20;;;;;;;;;;5095895;28;20289;-77
2024/02/02 12:39:54;;;;;;;4.55;2.88;;;;;;;;;;5095397;28;20266;-76
2024/02/02 12:42:24;;;;;;;2.88;2.50;;;;;;;;;;5095788;28;20624;-79
2024/02/02 12:44:51;;;;;;;4.68;2.53;;;;;;;;;;5095756;28;20245;-79
2024/02/02 12:47:25;;;;;;;7.60;3.17;;;;;;;;;;5095187;28;20228;-77
2024/02/02 12:49:54;;;;;;;2.90;1.83;;;;;;;;;;5080529;28;20639;-77
2024/02/02 12:52:23;;;;;;;7.07;2.30;;;;;;;;;;5095638;28;20279;-79
2024/02/02 12:54:52;;;;;;;5.57;2.30;;;;;;;;;;5095709;28;20210;-78
2024/02/02 12:57:20;;;;;;;2.83;2.13;;;;;;;;;;5096111;28;20281;-79
2024/02/02 12:59:47;;;;;;;4.47;2.83;;;;;;;;;;5087705;28;20674;-80
2024/02/02 13:02:16;;;;;;;6.47;2.30;;;;;;;;;;5095760;28;20258;-80
2024/02/02 13:04:43;;;;;;;6.03;2.78;;;;;;;;;;5096165;28;20562;-79
2024/02/02 13:07:11;;;;;;;8.80;2.78;;;;;;;;;;5097459;28;20281;-79
2024/02/02 13:09:48;;;;;;;10.05;3.90;;;;;;;;;;5097465;28;20200;-79
2024/02/02 13:12:28;;;;;;;6.57;2.83;;;;;;;;;;5097941;28;20200;-79
2024/02/02 13:15:06;;;;;;;6.05;2.83;;;;;;;;;;5091004;28;20214;-79
2024/02/02 13:17:36;;;;;;;4.28;2.85;;;;;;;;;;5098250;28;20293;-80
2024/02/02 13:20:11;;;;;;;2.72;2.17;;;;;;;;;;5098311;28;20219;-80
2024/02/02 13:22:40;;;;;;;5.15;2.55;;;;;;;;;;5097397;28;20662;-79
2024/02/02 13:25:11;;;;;;;4.28;2.58;;;;;;;;;;5097902;28;20253;-79
2024/02/02 13:27:39;;;;;;;6.72;2.38;;;;;;;;;;5098226;28;20293;-79
2024/02/02 13:30:13;;;;;;;4.55;2.10;;;;;;;;;;5098036;28;20720;-79
2024/02/02 13:32:45;;;;;;;7.45;3.13;;;;;;;;;;5097164;28;20224;-76
2024/02/02 13:35:15;;;;;;;5.00;2.20;;;;;;;;;;5097468;28;20204;-79
2024/02/02 13:37:43;;;;;;;2.25;1.90;;;;;;;;;;5097369;28;20289;-79
2024/02/02 13:40:13;;;;;;;6.50;2.10;;;;;;;;;;5097687;28;20267;-78
2024/02/02 13:42:41;;;;;;;4.95;2.42;;;;;;;;;;5097117;28;20200;-79
2024/02/02 13:45:10;;;;;;;4.47;2.53;;;;;;;;;;5097236;28;20249;-78
2024/02/02 13:47:38;;;;;;;5.00;3.05;;;;;;;;;;5097199;28;20746;-79
2024/02/02 13:50:15;;;;;;;5.75;2.13;;;;;;;;;;5097035;28;20618;-80
2024/02/02 13:52:45;;;;;;;4.57;2.20;;;;;;;;;;5096914;28;20598;-78
2024/02/02 13:55:18;;;;;;;4.40;2.15;;;;;;;;;;5097134;28;20204;-80
2024/02/02 13:57:46;;;;;;;5.65;2.28;;;;;;;;;;5096665;28;20281;-79
2024/02/02 14:00:15;;;;;;;4.22;2.28;;;;;;;;;;5096596;28;20197;-79
2024/02/02 14:02:43;;;;;;;3.03;2.22;;;;;;;;;;5095869;28;20254;-77
2024/02/02 14:05:12;;;;;;;4.68;2.38;;;;;;;;;;5097100;28;20232;-79
2024/02/02 14:07:41;;;;;;;8.02;3.28;;;;;;;;;;5096987;28;20626;-80
2024/02/02 14:10:11;;;;;;;6.18;3.45;;;;;;;;;;5096617;28;20679;-79
2024/02/02 14:12:40;;;;;;;4.80;2.50;;;;;;;;;;5097398;28;20200;-80
2024/02/02 14:15:09;;;;;;;4.30;2.33;;;;;;;;;;5096987;28;20200;-78
2024/02/02 14:17:37;;;;;;;3.20;1.55;;;;;;;;;;5097344;28;20937;-77
2024/02/02 14:20:08;;;;;;;2.22;1.60;;;;;;;;;;5096600;28;20615;-78
2024/02/02 14:22:36;;;;;;;2.03;1.40;;;;;;;;;;5096421;28;20216;-79
2024/02/02 14:25:04;;;;;;;1.67;1.45;;;;;;;;;;5097161;28;20200;-79
2024/02/02 14:27:36;;;;;;;5.93;2.35;;;;;;;;;;5096594;28;20220;-79
2024/02/02 14:30:07;;;;;;;4.10;1.90;;;;;;;;;;5097135;28;20691;-78
2024/02/02 14:32:35;;;;;;;3.67;1.98;;;;;;;;;;5096958;28;20206;-78
2024/02/02 14:35:03;;;;;;;3.42;1.63;;;;;;;;;;5097269;28;20257;-79
2024/02/02 14:37:32;;;;;;;4.68;1.20;;;;;;;;;;5097832;28;20234;-79
2024/02/02 14:40:00;;;;;;;1.48;1.38;;;;;;;;;;5098611;28;20263;-77
2024/02/02 14:42:28;;;;;;;3.00;1.70;;;;;;;;;;5097694;28;20206;-79
2024/02/02 14:44:58;;;;;;;2.25;1.50;;;;;;;;;;5097412;28;20211;-77
2024/02/02 14:47:27;;;;;;;1.63;1.30;;;;;;;;;;5099676;28;20224;-76
2024/02/02 14:49:55;;;;;;;2.20;1.60;;;;;;;;;;5101671;28;20204;-78
2024/02/02 14:52:23;;;;;;;5.38;2.92;;;;;;;;;;5101894;28;20207;-79
2024/02/02 14:54:50;;;;;;;2.22;1.92;;;;;;;;;;5101620;28;20208;-79
2024/02/02 14:57:18;;;;;;;5.90;2.22;;;;;;;;;;5102105;28;20228;-78
2024/02/02 14:59:51;;;;;;;2.97;1.10;;;;;;;;;;5094178;28;20294;-79
2024/02/02 15:02:19;;;;;;;2.15;1.65;;;;;;;;;;5102552;28;20204;-79
2024/02/02 15:04:48;;;;;;;3.30;1.50;;;;;;;;;;5102387;28;20762;-79
2024/02/02 15:07:16;;;;;;;1.50;1.40;;;;;;;;;;5102116;28;20266;-78